sensor_id;sensor_type;location;lat;lon;timestamp;pressure;altitude;pressure_sealevel;temperature;humidity
43691;BME280;29293;52.190;21.226;2023-03-19T00:05:09;100587.95;;;2.91;85.20
43691;BME280;29293;52.190;21.226;2023-03-19T00:20:16;100571.46;;;2.76;85.60
43691;BME280;29293;52.190;21.226;2023-03-19T00:35:27;100565.80;;;2.59;86.27
43691;BME280;29293;52.190;21.226;2023-03-19T00:50:34;100563.75;;;2.35;89.18
43691;BME280;29293;52.190;21.226;2023-03-19T01:05:41;100553.84;;;2.20;91.91
43691;BME280;29293;52.190;21.226;2023-03-19T01:20:47;100554.23;;;2.03;95.04
43691;BME280;29293;52.190;21.226;2023-03-19T01:35:55;100562.56;;;1.97;95.53
43691;BME280;29293;52.190;21.226;2023-03-19T01:51:02;100572.34;;;1.97;93.18
43691;BME280;29293;52.190;21.226;2023-03-19T02:06:11;100572.12;;;1.95;93.51
43691;BME280;29293;52.190;21.226;2023-03-19T02:21:20;100563.31;;;1.92;93.88
43691;BME280;29293;52.190;21.226;2023-03-19T02:37:07;100557.14;;;1.81;95.98
43691;BME280;29293;52.190;21.226;2023-03-19T02:52:20;100567.13;;;1.76;96.75
43691;BME280;29293;52.190;21.226;2023-03-19T03:07:28;100577.73;;;1.71;97.16
43691;BME280;29293;52.190;21.226;2023-03-19T03:22:35;100582.23;;;1.61;97.98
43691;BME280;29293;52.190;21.226;2023-03-19T03:37:42;100574.61;;;1.50;98.28
43691;BME280;29293;52.190;21.226;2023-03-19T03:52:49;100569.52;;;1.38;99.66
43691;BME280;29293;52.190;21.226;2023-03-19T04:07:59;100557.72;;;1.26;100.00
43691;BME280;29293;52.190;21.226;2023-03-19T04:23:30;100559.23;;;1.17;100.00
43691;BME280;29293;52.190;21.226;2023-03-19T04:38:42;100554.30;;;1.11;100.00
43691;BME280;29293;52.190;21.226;2023-03-19T04:54:22;100549.55;;;1.00;100.00
43691;BME280;29293;52.190;21.226;2023-03-19T05:09:32;100554.55;;;0.90;100.00
43691;BME280;29293;52.190;21.226;2023-03-19T05:24:40;100558.82;;;0.76;100.00
43691;BME280;29293;52.190;21.226;2023-03-19T05:39:47;100576.11;;;0.73;100.00
43691;BME280;29293;52.190;21.226;2023-03-19T05:54:54;100582.98;;;1.02;100.00
43691;BME280;29293;52.190;21.226;2023-03-19T06:10:01;100575.45;;;1.58;100.00
43691;BME280;29293;52.190;21.226;2023-03-19T06:25:09;100572.56;;;2.52;100.00
43691;BME280;29293;52.190;21.226;2023-03-19T06:40:19;100581.83;;;3.49;97.48
43691;BME280;29293;52.190;21.226;2023-03-19T06:55:26;100582.73;;;4.15;88.22
43691;BME280;29293;52.190;21.226;2023-03-19T07:10:36;100577.93;;;5.20;77.56
43691;BME280;29293;52.190;21.226;2023-03-19T07:25:43;100583.52;;;6.55;70.94
43691;BME280;29293;52.190;21.226;2023-03-19T07:40:51;100582.43;;;7.23;65.41
43691;BME280;29293;52.190;21.226;2023-03-19T07:55:58;100587.34;;;7.77;61.11
43691;BME280;29293;52.190;21.226;2023-03-19T08:11:06;100571.08;;;8.61;59.01
43691;BME280;29293;52.190;21.226;2023-03-19T08:26:13;100569.16;;;9.52;57.16
43691;BME280;29293;52.190;21.226;2023-03-19T08:41:20;100564.73;;;10.21;54.83
43691;BME280;29293;52.190;21.226;2023-03-19T08:56:30;100551.56;;;10.80;53.09
43691;BME280;29293;52.190;21.226;2023-03-19T09:42:11;100541.05;;;12.70;49.30
43691;BME280;29293;52.190;21.226;2023-03-19T09:57:21;100530.21;;;12.87;48.12
43691;BME280;29293;52.190;21.226;2023-03-19T10:12:41;100518.38;;;13.05;47.81
43691;BME280;29293;52.190;21.226;2023-03-19T10:27:55;100520.54;;;13.38;47.08
43691;BME280;29293;52.190;21.226;2023-03-19T10:43:10;100518.58;;;13.95;46.15
43691;BME280;29293;52.190;21.226;2023-03-19T10:58:24;100503.64;;;14.83;44.50
43691;BME280;29293;52.190;21.226;2023-03-19T12:34:19;100429.19;;;16.09;39.27
43691;BME280;29293;52.190;21.226;2023-03-19T12:49:32;100420.98;;;15.83;39.32
43691;BME280;29293;52.190;21.226;2023-03-19T13:05:00;100413.73;;;15.95;39.40
43691;BME280;29293;52.190;21.226;2023-03-19T13:20:19;100402.58;;;15.88;38.41
43691;BME280;29293;52.190;21.226;2023-03-19T13:35:35;100384.80;;;15.76;39.35
43691;BME280;29293;52.190;21.226;2023-03-19T13:50:58;100379.20;;;15.77;39.23
43691;BME280;29293;52.190;21.226;2023-03-19T14:06:34;100383.11;;;15.69;39.20
43691;BME280;29293;52.190;21.226;2023-03-19T14:21:44;100381.91;;;15.34;39.51
43691;BME280;29293;52.190;21.226;2023-03-19T14:36:56;100372.35;;;15.16;40.27
43691;BME280;29293;52.190;21.226;2023-03-19T14:52:09;100361.36;;;15.18;40.57
43691;BME280;29293;52.190;21.226;2023-03-19T15:07:27;100358.15;;;14.99;40.43
43691;BME280;29293;52.190;21.226;2023-03-19T15:22:37;100351.23;;;14.79;40.82
43691;BME280;29293;52.190;21.226;2023-03-19T15:37:52;100345.14;;;14.39;41.21
43691;BME280;29293;52.190;21.226;2023-03-19T15:53:05;100349.93;;;13.81;42.10
43691;BME280;29293;52.190;21.226;2023-03-19T16:08:18;100362.48;;;13.34;42.95
43691;BME280;29293;52.190;21.226;2023-03-19T16:23:34;100373.90;;;12.70;44.38
43691;BME280;29293;52.190;21.226;2023-03-19T16:38:45;100381.40;;;12.02;45.98
43691;BME280;29293;52.190;21.226;2023-03-19T16:53:57;100396.14;;;11.28;47.63
43691;BME280;29293;52.190;21.226;2023-03-19T17:09:07;100410.25;;;10.54;48.91
43691;BME280;29293;52.190;21.226;2023-03-19T17:24:24;100416.76;;;9.83;50.45
43691;BME280;29293;52.190;21.226;2023-03-19T17:39:37;100419.47;;;9.10;52.07
43691;BME280;29293;52.190;21.226;2023-03-19T17:54:46;100419.00;;;8.58;53.85
43691;BME280;29293;52.190;21.226;2023-03-19T18:09:55;100411.22;;;8.23;55.24
43691;BME280;29293;52.190;21.226;2023-03-19T18:25:02;100410.34;;;7.88;58.47
43691;BME280;29293;52.190;21.226;2023-03-19T18:40:14;100404.30;;;7.86;58.92
43691;BME280;29293;52.190;21.226;2023-03-19T18:55:25;100408.75;;;7.90;58.86
43691;BME280;29293;52.190;21.226;2023-03-19T19:10:41;100403.77;;;7.83;58.89
43691;BME280;29293;52.190;21.226;2023-03-19T19:25:50;100402.06;;;7.80;58.87
43691;BME280;29293;52.190;21.226;2023-03-19T19:41:01;100408.50;;;7.69;59.35
43691;BME280;29293;52.190;21.226;2023-03-19T19:56:15;100410.71;;;7.60;59.79
43691;BME280;29293;52.190;21.226;2023-03-19T20:11:25;100412.14;;;7.41;60.82
43691;BME280;29293;52.190;21.226;2023-03-19T20:26:33;100407.91;;;7.15;63.15
43691;BME280;29293;52.190;21.226;2023-03-19T20:41:40;100403.00;;;6.90;64.11
43691;BME280;29293;52.190;21.226;2023-03-19T20:56:47;100400.75;;;6.61;63.96
43691;BME280;29293;52.190;21.226;2023-03-19T21:11:54;100390.05;;;6.20;65.65
43691;BME280;29293;52.190;21.226;2023-03-19T21:27:02;100386.88;;;5.78;67.67
43691;BME280;29293;52.190;21.226;2023-03-19T21:42:15;100403.55;;;5.45;70.07
43691;BME280;29293;52.190;21.226;2023-03-19T21:57:23;100393.34;;;5.14;73.14
43691;BME280;29293;52.190;21.226;2023-03-19T22:12:31;100386.55;;;4.90;77.14
43691;BME280;29293;52.190;21.226;2023-03-19T22:27:39;100389.13;;;4.70;81.33
43691;BME280;29293;52.190;21.226;2023-03-19T22:42:47;100382.21;;;4.57;83.80
43691;BME280;29293;52.190;21.226;2023-03-19T22:57:54;100372.88;;;4.37;85.58
43691;BME280;29293;52.190;21.226;2023-03-19T23:13:01;100374.06;;;4.14;87.81
43691;BME280;29293;52.190;21.226;2023-03-19T23:28:16;100372.86;;;3.97;91.22
43691;BME280;29293;52.190;21.226;2023-03-19T23:43:26;100363.71;;;3.80;93.37
43691;BME280;29293;52.190;21.226;2023-03-19T23:58:36;100352.41;;;3.62;94.07
